createdAt,value
2023-03-30T00:00:56.451Z,4.78
2023-03-30T00:02:56.310Z,4.6
2023-03-30T00:04:56.346Z,4.26
2023-03-30T00:06:56.267Z,4.38
2023-03-30T00:09:58.916Z,4.88
2023-03-30T00:11:58.981Z,5
2023-03-30T00:13:59.132Z,4.91
2023-03-30T00:15:58.937Z,4.67
2023-03-30T00:17:58.996Z,4.69
2023-03-30T00:19:58.948Z,4.63
2023-03-30T00:21:58.940Z,4.71
2023-03-30T00:25:01.025Z,4.78
2023-03-30T00:27:01.086Z,5
2023-03-30T00:29:01.009Z,5.03
2023-03-30T00:31:01.077Z,5.13
2023-03-30T00:33:01.098Z,5.06
2023-03-30T00:35:01.019Z,5.08
2023-03-30T00:37:01.054Z,5.05
2023-03-30T00:40:47.277Z,5.1
2023-03-30T00:42:47.294Z,5.02
2023-03-30T00:44:47.240Z,4.96
2023-03-30T00:46:47.300Z,4.91
2023-03-30T00:48:47.267Z,4.97
2023-03-30T00:50:47.272Z,5.13
2023-03-30T00:52:47.259Z,5.1
2023-03-30T00:55:41.446Z,5.05
2023-03-30T00:57:41.505Z,5.03
2023-03-30T00:59:41.431Z,4.97
2023-03-30T01:01:41.527Z,4.99
2023-03-30T01:03:41.519Z,5.1
2023-03-30T01:05:41.463Z,5.09
2023-03-30T01:07:41.458Z,5.06
2023-03-30T01:11:03.408Z,4.94
2023-03-30T01:13:03.228Z,4.98
2023-03-30T01:15:03.269Z,5.03
2023-03-30T01:17:03.212Z,5.14
2023-03-30T01:19:03.256Z,5.08
2023-03-30T01:21:03.380Z,5.12
2023-03-30T01:23:03.219Z,5.13
2023-03-30T01:26:19.088Z,5.17
2023-03-30T01:28:19.106Z,5.18
2023-03-30T01:30:19.081Z,5.19
2023-03-30T01:32:19.088Z,4.99
2023-03-30T01:34:19.132Z,5.25
2023-03-30T01:36:19.124Z,5.23
2023-03-30T01:38:19.070Z,5.23
2023-03-30T01:40:42.973Z,5.1
2023-03-30T01:42:42.941Z,5.18
2023-03-30T01:44:42.953Z,5.17
2023-03-30T01:46:42.992Z,5.08
2023-03-30T01:48:42.930Z,5.18
2023-03-30T01:50:42.953Z,5.09
2023-03-30T01:52:42.948Z,5.18
2023-03-30T01:56:07.045Z,5.19
2023-03-30T01:58:07.029Z,5.08
2023-03-30T02:00:07.033Z,5.08
2023-03-30T02:02:07.165Z,4.92
2023-03-30T02:04:07.044Z,4.86
2023-03-30T02:06:07.002Z,4.76
2023-03-30T02:08:07.090Z,4.99
2023-03-30T02:11:31.219Z,5.07
2023-03-30T02:13:31.193Z,4.95
2023-03-30T02:15:31.154Z,4.85
2023-03-30T02:17:31.245Z,4.95
2023-03-30T02:19:31.208Z,5.01
2023-03-30T02:21:31.203Z,5.02
2023-03-30T02:23:31.185Z,5.05
2023-03-30T02:26:25.931Z,4.35
2023-03-30T02:28:25.918Z,4.31
2023-03-30T02:30:25.882Z,4.56
2023-03-30T02:32:25.958Z,4.78
2023-03-30T02:34:25.886Z,4.95
2023-03-30T02:36:25.916Z,4.91
2023-03-30T02:38:25.896Z,5
2023-03-30T02:41:42.452Z,4.85
2023-03-30T02:43:42.387Z,4.88
2023-03-30T02:45:42.370Z,5
2023-03-30T02:47:42.386Z,4.93
2023-03-30T02:49:42.370Z,4.8
2023-03-30T02:51:42.405Z,4.9
2023-03-30T02:53:42.380Z,5
2023-03-30T02:56:45.443Z,5.16
2023-03-30T02:58:45.376Z,5.19
2023-03-30T03:00:45.349Z,5.11
2023-03-30T03:02:45.384Z,5.06
2023-03-30T03:04:45.388Z,4.94
2023-03-30T03:06:45.406Z,5.07
2023-03-30T03:08:45.367Z,5.16
2023-03-30T03:12:13.476Z,5.2
2023-03-30T03:14:12.910Z,5.22
2023-03-30T03:16:12.957Z,5.19
2023-03-30T03:18:12.921Z,5.23
2023-03-30T03:20:12.914Z,5.22
2023-03-30T03:22:12.944Z,5.02
2023-03-30T03:24:12.917Z,4.97
2023-03-30T03:27:22.511Z,4.99
2023-03-30T03:29:22.407Z,5.14
2023-03-30T03:31:22.506Z,5.17
2023-03-30T03:33:22.433Z,5.1
2023-03-30T03:35:22.415Z,4.92
2023-03-30T03:37:22.475Z,4.78
2023-03-30T03:39:22.429Z,4.72
2023-03-30T03:42:47.325Z,5.02
2023-03-30T03:44:47.270Z,4.87
2023-03-30T03:46:47.314Z,4.94
2023-03-30T03:48:47.292Z,5.01
2023-03-30T03:50:47.258Z,4.97
2023-03-30T03:52:47.310Z,4.96
2023-03-30T03:54:47.259Z,4.82
2023-03-30T03:57:49.004Z,5
2023-03-30T03:59:49.039Z,5.05
2023-03-30T04:01:49.079Z,5.04
2023-03-30T04:03:49.016Z,5.11
2023-03-30T04:05:49.019Z,5.1
2023-03-30T04:07:49.022Z,5.02
2023-03-30T04:09:48.972Z,4.92
2023-03-30T04:12:49.785Z,4.93
2023-03-30T04:14:49.791Z,4.91
2023-03-30T04:16:49.781Z,4.86
2023-03-30T04:18:49.770Z,4.83
2023-03-30T04:20:49.835Z,4.85
2023-03-30T04:22:49.850Z,4.94
2023-03-30T04:24:49.755Z,4.85
2023-03-30T04:28:01.035Z,4.64
2023-03-30T04:30:01.095Z,4.62
2023-03-30T04:32:01.065Z,4.53
2023-03-30T04:34:01.034Z,4.44
2023-03-30T04:36:01.124Z,4.55
2023-03-30T04:38:01.013Z,4.51
2023-03-30T04:40:01.068Z,4.49
2023-03-30T04:43:17.852Z,4.55
2023-03-30T04:45:17.885Z,4.62
2023-03-30T04:47:17.938Z,4.68
2023-03-30T04:49:17.836Z,4.69
2023-03-30T04:51:17.856Z,4.78
2023-03-30T04:53:17.870Z,4.78
2023-03-30T04:55:17.839Z,4.71
2023-03-30T04:58:09.942Z,4.82
2023-03-30T05:00:09.965Z,4.87
2023-03-30T05:02:09.914Z,4.97
2023-03-30T05:04:09.934Z,4.91
2023-03-30T05:06:09.958Z,4.88
2023-03-30T05:08:09.915Z,4.97
2023-03-30T05:10:09.932Z,5.16
2023-03-30T05:12:56.693Z,4.96
2023-03-30T05:14:56.722Z,5.19
2023-03-30T05:16:56.997Z,4.75
2023-03-30T05:18:56.803Z,5
2023-03-30T05:20:58.842Z,5.21
2023-03-30T05:22:56.788Z,5.3
2023-03-30T05:24:56.893Z,5.04
2023-03-30T05:26:56.858Z,5.15
2023-03-30T05:28:47.984Z,5.13
2023-03-30T05:30:47.856Z,5.27
2023-03-30T05:32:48.277Z,5.29
2023-03-30T05:34:48.009Z,5.3
2023-03-30T05:36:48.078Z,5.21
2023-03-30T05:38:47.906Z,4.56
2023-03-30T05:40:47.951Z,5.05
2023-03-30T05:43:15.218Z,5.4
2023-03-30T05:45:15.175Z,5.49
2023-03-30T05:47:15.244Z,5.55
2023-03-30T05:49:15.277Z,5.66
2023-03-30T05:51:15.193Z,5.8
2023-03-30T05:53:15.258Z,5.85
2023-03-30T05:55:15.254Z,5.89
2023-03-30T05:57:15.243Z,5.83
2023-03-30T05:58:45.117Z,5.66
2023-03-30T06:00:45.060Z,5.21
2023-03-30T06:02:45.348Z,5.53
2023-03-30T06:04:45.128Z,5.72
2023-03-30T06:06:45.296Z,5.68
2023-03-30T06:08:45.410Z,5.92
2023-03-30T06:10:45.076Z,6.29
2023-03-30T06:13:40.780Z,6.59
2023-03-30T06:15:40.762Z,6.51
2023-03-30T06:17:40.929Z,6.04
2023-03-30T06:19:40.863Z,5.56
2023-03-30T06:21:40.851Z,5.65
2023-03-30T06:23:40.716Z,6.25
2023-03-30T06:25:40.789Z,6.25
2023-03-30T06:27:42.724Z,6.72
2023-03-30T06:29:33.153Z,6.75
2023-03-30T06:31:33.204Z,6.15
2023-03-30T06:33:33.128Z,5.46
2023-03-30T06:35:33.182Z,6.04
2023-03-30T06:37:33.155Z,6.07
2023-03-30T06:39:33.128Z,6.33
2023-03-30T06:41:33.618Z,6.09
2023-03-30T06:44:03.913Z,6.03
2023-03-30T06:46:03.905Z,6.63
2023-03-30T06:48:04.007Z,6.67
2023-03-30T06:50:04.011Z,7.16
2023-03-30T06:52:05.017Z,7.07
2023-03-30T06:54:03.891Z,7.13
2023-03-30T06:56:03.925Z,7.12
2023-03-30T06:58:03.920Z,6.76
2023-03-30T06:59:27.605Z,6.7
2023-03-30T07:01:27.607Z,7.14
2023-03-30T07:03:27.563Z,7.15
2023-03-30T07:05:27.829Z,6.6
2023-03-30T07:07:27.526Z,7.36
2023-03-30T07:09:27.543Z,8.04
2023-03-30T07:11:27.837Z,7.25
2023-03-30T07:14:34.334Z,7.82
2023-03-30T07:16:34.367Z,7.75
2023-03-30T07:18:34.307Z,7.55
2023-03-30T07:20:34.391Z,8.29
2023-03-30T07:22:34.265Z,8.34
2023-03-30T07:24:34.239Z,8.36
2023-03-30T07:26:34.518Z,7.94
2023-03-30T07:30:02.681Z,7.52
2023-03-30T07:31:57.447Z,7.89
2023-03-30T07:33:57.388Z,9.14
2023-03-30T07:35:57.579Z,7.76
2023-03-30T07:38:03.152Z,8.45
2023-03-30T07:39:57.439Z,8.79
2023-03-30T07:41:57.356Z,9.07
2023-03-30T07:45:09.210Z,9.35
2023-03-30T07:47:09.196Z,9.58
2023-03-30T07:49:09.270Z,10.05
2023-03-30T07:51:09.522Z,9.99
2023-03-30T07:53:09.430Z,10.09
2023-03-30T07:55:09.385Z,10.06
2023-03-30T07:57:09.598Z,10.1
2023-03-30T08:00:01.881Z,10.45
2023-03-30T08:02:01.957Z,10.02
2023-03-30T08:04:01.925Z,10.1
2023-03-30T08:06:01.872Z,10.73
2023-03-30T08:08:01.931Z,11.14
2023-03-30T08:10:01.868Z,10.82
2023-03-30T08:12:01.931Z,10.82
2023-03-30T08:15:12.425Z,11.55
2023-03-30T08:17:12.502Z,11.2
2023-03-30T08:19:12.417Z,10.79
2023-03-30T08:21:12.498Z,11.43
2023-03-30T08:23:12.438Z,11.95
2023-03-30T08:25:12.503Z,11.71
2023-03-30T08:27:12.819Z,11.59
2023-03-30T08:30:06.076Z,11.19
2023-03-30T08:32:06.065Z,11.35
2023-03-30T08:34:06.291Z,11.7
2023-03-30T08:36:05.792Z,11.98
2023-03-30T08:38:05.763Z,12.02
2023-03-30T08:40:05.852Z,11.78
2023-03-30T08:42:05.710Z,11.76
2023-03-30T08:44:05.753Z,11.99
2023-03-30T08:45:14.791Z,12.04
2023-03-30T08:47:14.727Z,11.35
2023-03-30T08:49:14.756Z,11.39
2023-03-30T08:51:14.821Z,10.92
2023-03-30T08:53:14.724Z,11.99
2023-03-30T08:55:14.772Z,12.32
2023-03-30T08:57:18.893Z,11.88
2023-03-30T08:59:14.776Z,12.39
2023-03-30T09:00:53.158Z,11.93
2023-03-30T09:02:53.515Z,11.65
2023-03-30T09:04:53.172Z,12.65
2023-03-30T09:06:53.207Z,13.26
2023-03-30T09:08:53.253Z,12.47
2023-03-30T09:10:53.180Z,12.62
2023-03-30T09:12:53.164Z,12.27
2023-03-30T09:16:08.439Z,11.55
2023-03-30T09:18:08.507Z,12.76
2023-03-30T09:20:08.414Z,13.08
2023-03-30T09:22:08.362Z,12.99
2023-03-30T09:24:08.427Z,12.62
2023-03-30T09:26:08.336Z,12.88
2023-03-30T09:28:08.400Z,12.87
2023-03-30T09:31:02.262Z,12.75
2023-03-30T09:33:02.141Z,13.28
2023-03-30T09:35:02.108Z,13.12
2023-03-30T09:37:02.194Z,13.5
2023-03-30T09:39:02.160Z,12.78
2023-03-30T09:41:02.243Z,12.19
2023-03-30T09:43:02.135Z,12.77
2023-03-30T09:46:24.145Z,12.32
2023-03-30T09:48:23.963Z,12.51
2023-03-30T09:50:23.960Z,12.41
2023-03-30T09:52:24.095Z,12.44
2023-03-30T09:54:24.016Z,12.77
2023-03-30T09:56:24.181Z,12.34
2023-03-30T09:58:24.030Z,12.79
2023-03-30T10:01:44.529Z,12.47
2023-03-30T10:03:44.695Z,13.1
2023-03-30T10:05:44.489Z,10.92
2023-03-30T10:07:44.507Z,11.64
2023-03-30T10:09:44.471Z,12.22
2023-03-30T10:11:44.478Z,11.75
2023-03-30T10:13:44.470Z,12.53
2023-03-30T10:16:29.556Z,14.11
2023-03-30T10:18:29.422Z,13.15
2023-03-30T10:20:29.463Z,13.74
2023-03-30T10:22:29.397Z,14.44
2023-03-30T10:24:29.451Z,13.41
2023-03-30T10:26:29.657Z,13.67
2023-03-30T10:28:29.454Z,14.64
2023-03-30T10:32:21.750Z,13.36
2023-03-30T10:34:21.703Z,12.85
2023-03-30T10:36:21.775Z,12.73
2023-03-30T10:38:21.712Z,12.94
2023-03-30T10:40:21.745Z,12.92
2023-03-30T10:42:21.743Z,14.01
2023-03-30T10:44:21.714Z,15.14
2023-03-30T10:47:33.575Z,13.66
2023-03-30T10:49:33.499Z,13.99
2023-03-30T10:51:33.556Z,14.43
2023-03-30T10:53:33.495Z,13.22
2023-03-30T10:55:33.649Z,13.5
2023-03-30T10:57:33.558Z,14.07
2023-03-30T10:59:33.515Z,14.2
2023-03-30T11:02:28.381Z,15.17
2023-03-30T11:04:28.463Z,15.07
2023-03-30T11:06:28.384Z,15.28
2023-03-30T11:08:28.344Z,15.87
2023-03-30T11:10:28.341Z,15.96
2023-03-30T11:12:28.397Z,14.59
2023-03-30T11:14:28.367Z,15.97
2023-03-30T11:17:35.509Z,14.95
2023-03-30T11:19:35.479Z,15.22
2023-03-30T11:21:35.546Z,15.18
2023-03-30T11:23:35.494Z,15.03
2023-03-30T11:25:35.505Z,14.28
2023-03-30T11:27:35.627Z,14.19
2023-03-30T11:29:35.462Z,14.62
2023-03-30T11:32:45.290Z,16.35
2023-03-30T11:34:45.185Z,16.88
2023-03-30T11:36:45.195Z,17.26
2023-03-30T11:38:45.208Z,16.56
2023-03-30T11:40:45.156Z,16.67
2023-03-30T11:42:45.251Z,16.34
2023-03-30T11:44:45.173Z,16.28
2023-03-30T11:47:42.707Z,16.62
2023-03-30T11:49:42.636Z,16.85
2023-03-30T11:51:42.679Z,15.87
2023-03-30T11:53:42.621Z,15.86
2023-03-30T11:55:42.618Z,16.55
2023-03-30T11:57:42.677Z,17.34
2023-03-30T11:59:43.912Z,15.64
2023-03-30T12:02:31.912Z,15.98
2023-03-30T12:04:31.894Z,16
2023-03-30T12:06:31.764Z,16.5
2023-03-30T12:08:31.812Z,15.78
2023-03-30T12:10:31.773Z,16.16
2023-03-30T12:12:31.842Z,15.95
2023-03-30T12:14:31.777Z,16.29
2023-03-30T12:16:31.887Z,15.24
2023-03-30T12:18:24.606Z,15.86
2023-03-30T12:20:24.643Z,16.36
2023-03-30T12:22:24.590Z,16.56
2023-03-30T12:24:24.711Z,16.92
2023-03-30T12:26:24.706Z,16.89
2023-03-30T12:28:29.790Z,16.84
2023-03-30T12:30:24.698Z,16.87
2023-03-30T12:33:42.365Z,17.27
2023-03-30T12:35:42.516Z,17.46
2023-03-30T12:37:42.301Z,17.47
2023-03-30T12:39:42.317Z,17.42
2023-03-30T12:41:42.282Z,17.3
2023-03-30T12:43:42.337Z,17.35
2023-03-30T12:45:42.341Z,16.82
2023-03-30T12:48:39.387Z,18.03
2023-03-30T12:50:39.390Z,17.76
2023-03-30T12:52:39.373Z,18.23
2023-03-30T12:54:39.343Z,18.43
2023-03-30T12:56:39.367Z,18.22
2023-03-30T12:58:39.332Z,17.06
2023-03-30T13:00:39.343Z,16.95
2023-03-30T13:03:08.579Z,15.86
2023-03-30T13:05:08.304Z,16.55
2023-03-30T13:07:08.361Z,16.57
2023-03-30T13:09:08.344Z,15.81
2023-03-30T13:11:08.316Z,16.33
2023-03-30T13:13:08.378Z,15.69
2023-03-30T13:15:08.345Z,16.22
2023-03-30T13:17:08.327Z,15.91
2023-03-30T13:18:48.355Z,15.63
2023-03-30T13:20:48.343Z,14.77
2023-03-30T13:22:48.346Z,15.46
2023-03-30T13:24:48.339Z,16.22
2023-03-30T13:26:48.308Z,16.28
2023-03-30T13:28:48.309Z,15.93
2023-03-30T13:30:48.424Z,14.98
2023-03-30T13:34:03.484Z,15.87
2023-03-30T13:36:03.748Z,15.21
2023-03-30T13:38:03.509Z,15.62
2023-03-30T13:40:03.498Z,15.63
2023-03-30T13:42:03.489Z,15.95
2023-03-30T13:44:03.494Z,16.1
2023-03-30T13:46:13.663Z,15.93
2023-03-30T13:49:31.245Z,15.76
2023-03-30T13:51:31.270Z,15.89
2023-03-30T13:53:31.244Z,15.98
2023-03-30T13:55:33.028Z,15.97
2023-03-30T13:57:31.338Z,15.33
2023-03-30T13:59:31.219Z,15.54
2023-03-30T14:01:31.264Z,15.89
2023-03-30T14:04:20.937Z,16.09
2023-03-30T14:06:20.990Z,16.27
2023-03-30T14:08:20.958Z,16.25
2023-03-30T14:10:20.998Z,15.02
2023-03-30T14:12:20.931Z,14.4
2023-03-30T14:14:20.974Z,14.16
2023-03-30T14:16:21.011Z,14.8
2023-03-30T14:19:18.754Z,15.57
2023-03-30T14:21:18.692Z,15.59
2023-03-30T14:23:18.763Z,15.75
2023-03-30T14:25:18.703Z,15.69
2023-03-30T14:27:18.706Z,15.88
2023-03-30T14:29:28.534Z,15.88
2023-03-30T14:31:18.840Z,15.66
2023-03-30T14:34:44.362Z,15.57
2023-03-30T14:36:44.304Z,15.94
2023-03-30T14:38:44.375Z,16.09
2023-03-30T14:40:44.329Z,15.93
2023-03-30T14:42:44.500Z,15.8
2023-03-30T14:44:44.344Z,15.76
2023-03-30T14:46:44.426Z,15.71
2023-03-30T14:49:49.159Z,14.83
2023-03-30T14:51:49.124Z,15.25
2023-03-30T14:53:49.170Z,14.54
2023-03-30T14:55:49.115Z,14.73
2023-03-30T14:57:49.160Z,14
2023-03-30T14:59:49.197Z,14.79
2023-03-30T15:01:49.232Z,15.36
2023-03-30T15:05:16.478Z,15.8
2023-03-30T15:07:16.500Z,15.88
2023-03-30T15:09:16.458Z,15.97
2023-03-30T15:11:16.518Z,15.73
2023-03-30T15:13:16.485Z,15.77
2023-03-30T15:15:16.465Z,15.4
2023-03-30T15:17:16.646Z,15.45
2023-03-30T15:20:40.124Z,15.35
2023-03-30T15:22:40.115Z,15.18
2023-03-30T15:24:40.371Z,15.21
2023-03-30T15:26:40.129Z,15.27
2023-03-30T15:28:40.276Z,15.29
2023-03-30T15:30:40.190Z,15.24
2023-03-30T15:32:40.174Z,15.13
2023-03-30T15:35:37.060Z,15.07
2023-03-30T15:37:37.001Z,14.8
2023-03-30T15:39:36.983Z,14.88
2023-03-30T15:41:37.045Z,14.81
2023-03-30T15:43:36.983Z,14.81
2023-03-30T15:45:37.132Z,14.73
2023-03-30T15:47:37.162Z,14.72
2023-03-30T15:50:10.469Z,14.81
2023-03-30T15:52:10.483Z,14.96
2023-03-30T15:54:10.318Z,14.87
2023-03-30T15:56:10.333Z,14.68
2023-03-30T15:58:10.304Z,14.66
2023-03-30T16:00:10.310Z,14.82
2023-03-30T16:02:10.441Z,14.89
2023-03-30T16:04:10.307Z,14.95
2023-03-30T16:05:29.299Z,14.91
2023-03-30T16:07:29.153Z,14.78
2023-03-30T16:09:29.168Z,14.66
2023-03-30T16:11:29.236Z,14.3
2023-03-30T16:13:29.148Z,14.36
2023-03-30T16:15:29.265Z,14.51
2023-03-30T16:17:29.162Z,14.4
2023-03-30T16:20:45.442Z,14.27
2023-03-30T16:22:45.339Z,14.3
2023-03-30T16:24:45.250Z,14.3
2023-03-30T16:26:45.336Z,14.22
2023-03-30T16:28:45.282Z,14.1
2023-03-30T16:30:45.286Z,14.02
2023-03-30T16:32:45.370Z,13.96
2023-03-30T16:35:49.677Z,13.74
2023-03-30T16:37:49.689Z,13.79
2023-03-30T16:39:49.666Z,13.82
2023-03-30T16:41:49.833Z,13.7
2023-03-30T16:43:49.620Z,13.63
2023-03-30T16:45:49.680Z,13.59
2023-03-30T16:47:49.652Z,13.55
2023-03-30T16:51:23.824Z,13.52
2023-03-30T16:53:24.090Z,13.42
2023-03-30T16:55:23.820Z,13.42
2023-03-30T16:57:23.962Z,13.45
2023-03-30T16:59:23.874Z,13.47
2023-03-30T17:01:24.103Z,13.44
2023-03-30T17:03:23.916Z,13.44
2023-03-30T17:05:51.008Z,13.31
2023-03-30T17:07:50.792Z,13.22
2023-03-30T17:09:50.746Z,13.24
2023-03-30T17:11:50.886Z,13.37
2023-03-30T17:13:51.745Z,13.45
2023-03-30T17:15:50.963Z,13.4
2023-03-30T17:17:50.830Z,13.48
2023-03-30T17:19:50.797Z,13.44
2023-03-30T17:21:04.086Z,13.39
2023-03-30T17:23:03.642Z,13.3
2023-03-30T17:25:03.648Z,13.21
2023-03-30T17:27:03.805Z,13.19
2023-03-30T17:29:03.722Z,13.18
2023-03-30T17:31:03.830Z,13.19
2023-03-30T17:33:03.689Z,13.1
2023-03-30T17:35:03.768Z,13.13
2023-03-30T17:37:06.636Z,13.15
2023-03-30T17:39:06.700Z,13.18
2023-03-30T17:41:06.873Z,13.25
2023-03-30T17:43:06.721Z,13.27
2023-03-30T17:45:06.707Z,13.23
2023-03-30T17:47:06.664Z,13.19
2023-03-30T17:49:06.624Z,13.13
2023-03-30T17:51:34.873Z,13.13
2023-03-30T17:53:34.790Z,13.14
2023-03-30T17:55:34.796Z,13.03
2023-03-30T17:57:34.814Z,13.11
2023-03-30T17:59:34.829Z,12.94
2023-03-30T18:01:36.166Z,13
2023-03-30T18:03:34.818Z,13.03
2023-03-30T18:06:41.483Z,13.13
2023-03-30T18:08:41.442Z,12.97
2023-03-30T18:10:41.438Z,12.99
2023-03-30T18:12:41.432Z,13.03
2023-03-30T18:14:41.481Z,13.03
2023-03-30T18:16:41.470Z,13.03
2023-03-30T18:18:41.742Z,12.99
2023-03-30T18:20:41.482Z,12.99
2023-03-30T18:22:14.820Z,13
2023-03-30T18:24:14.803Z,13.03
2023-03-30T18:26:15.000Z,13.03
2023-03-30T18:28:14.784Z,13.01
2023-03-30T18:30:14.777Z,12.94
2023-03-30T18:32:14.959Z,12.98
2023-03-30T18:34:14.771Z,12.89
2023-03-30T18:37:37.839Z,12.82
2023-03-30T18:39:37.799Z,12.85
2023-03-30T18:41:37.762Z,12.88
2023-03-30T18:43:37.790Z,12.89
2023-03-30T18:45:37.904Z,12.92
2023-03-30T18:47:37.810Z,12.8
2023-03-30T18:49:37.806Z,12.8
2023-03-30T18:52:59.474Z,12.82
2023-03-30T18:54:59.434Z,12.76
2023-03-30T18:56:59.536Z,12.81
2023-03-30T18:58:59.474Z,12.73
2023-03-30T19:00:59.847Z,12.73
2023-03-30T19:02:59.551Z,12.69
2023-03-30T19:04:59.431Z,12.73
2023-03-30T19:07:29.893Z,12.76
2023-03-30T19:09:36.626Z,12.68
2023-03-30T19:11:29.915Z,12.64
2023-03-30T19:13:29.926Z,12.58
2023-03-30T19:15:29.894Z,12.65
2023-03-30T19:17:29.922Z,12.62
2023-03-30T19:19:29.943Z,12.6
2023-03-30T19:22:53.061Z,12.55
2023-03-30T19:24:53.011Z,12.55
2023-03-30T19:26:52.907Z,12.57
2023-03-30T19:28:52.976Z,12.61
2023-03-30T19:30:52.974Z,12.51
2023-03-30T19:32:52.914Z,12.57
2023-03-30T19:34:52.934Z,12.52
2023-03-30T19:37:58.550Z,12.44
2023-03-30T19:39:58.489Z,12.48
2023-03-30T19:41:59.198Z,12.55
2023-03-30T19:43:58.469Z,12.61
2023-03-30T19:45:58.559Z,12.46
2023-03-30T19:47:58.523Z,12.47
2023-03-30T19:49:58.473Z,12.55
2023-03-30T19:53:44.844Z,12.6
2023-03-30T19:55:44.833Z,12.53
2023-03-30T19:57:44.824Z,12.55
2023-03-30T19:59:44.875Z,12.62
2023-03-30T20:01:44.881Z,12.38
2023-03-30T20:03:44.843Z,12.37
2023-03-30T20:05:44.860Z,12.47
2023-03-30T20:08:21.164Z,12.58
2023-03-30T20:10:11.935Z,12.48
2023-03-30T20:12:12.002Z,12.62
2023-03-30T20:14:11.883Z,12.62
2023-03-30T20:16:13.824Z,12.62
2023-03-30T20:18:12.043Z,12.56
2023-03-30T20:20:12.169Z,12.39
2023-03-30T20:24:01.589Z,12.54
2023-03-30T20:26:01.627Z,12.48
2023-03-30T20:28:01.611Z,12.44
2023-03-30T20:30:01.627Z,12.35
2023-03-30T20:32:01.737Z,12.41
2023-03-30T20:34:01.567Z,12.54
2023-03-30T20:36:01.667Z,12.52
2023-03-30T20:39:08.267Z,12.45
2023-03-30T20:41:08.262Z,12.43
2023-03-30T20:43:08.306Z,12.45
2023-03-30T20:45:08.227Z,12.4
2023-03-30T20:47:08.265Z,12.52
2023-03-30T20:49:08.231Z,12.48
2023-03-30T20:51:08.369Z,12.53
2023-03-30T20:54:17.365Z,12.46
2023-03-30T20:56:17.309Z,12.41
2023-03-30T20:58:17.391Z,12.41
2023-03-30T21:00:17.311Z,12.22
2023-03-30T21:02:17.343Z,12.32
2023-03-30T21:04:17.353Z,12.37
2023-03-30T21:06:17.288Z,12.32
2023-03-30T21:09:11.137Z,12.39
2023-03-30T21:11:11.069Z,12.41
2023-03-30T21:13:11.126Z,12.41
2023-03-30T21:15:11.201Z,12.34
2023-03-30T21:17:11.148Z,12.39
2023-03-30T21:19:11.094Z,12.41
2023-03-30T21:21:11.054Z,12.34
2023-03-30T21:23:50.328Z,12.36
2023-03-30T21:25:50.286Z,12.39
2023-03-30T21:27:50.290Z,12.43
2023-03-30T21:29:50.272Z,12.39
2023-03-30T21:31:50.360Z,12.3
2023-03-30T21:33:50.343Z,12.33
2023-03-30T21:35:50.341Z,12.27
2023-03-30T21:37:50.343Z,12.33
2023-03-30T21:39:40.188Z,12.2
2023-03-30T21:41:40.220Z,12.36
2023-03-30T21:43:40.200Z,12.36
2023-03-30T21:45:40.175Z,12.3
2023-03-30T21:47:40.269Z,12.28
2023-03-30T21:49:40.170Z,12.23
2023-03-30T21:51:40.147Z,12.22
2023-03-30T21:54:47.983Z,12.13
2023-03-30T21:56:47.986Z,12.11
2023-03-30T21:58:48.003Z,12.04
2023-03-30T22:00:53.331Z,11.93
2023-03-30T22:02:48.253Z,11.83
2023-03-30T22:04:48.166Z,11.73
2023-03-30T22:06:48.188Z,11.61
2023-03-30T22:09:26.284Z,11.61
2023-03-30T22:11:26.308Z,11.53
2023-03-30T22:13:26.291Z,11.52
2023-03-30T22:15:26.271Z,11.47
2023-03-30T22:17:26.290Z,11.46
2023-03-30T22:19:26.286Z,11.39
2023-03-30T22:21:26.239Z,11.36
2023-03-30T22:25:21.162Z,11.27
2023-03-30T22:27:21.104Z,11.03
2023-03-30T22:29:21.113Z,11.07
2023-03-30T22:31:21.135Z,11
2023-03-30T22:33:21.117Z,11.09
2023-03-30T22:35:21.176Z,11.07
2023-03-30T22:37:21.102Z,11.1
2023-03-30T22:40:30.350Z,11.01
2023-03-30T22:42:30.342Z,11
2023-03-30T22:44:30.376Z,10.93
2023-03-30T22:46:30.380Z,10.84
2023-03-30T22:48:30.342Z,10.75
2023-03-30T22:50:30.372Z,10.68
2023-03-30T22:52:30.361Z,10.68
2023-03-30T22:55:34.459Z,10.7
2023-03-30T22:57:34.505Z,10.68
2023-03-30T22:59:34.463Z,10.5
2023-03-30T23:01:34.493Z,10.41
2023-03-30T23:03:34.577Z,10.25
2023-03-30T23:05:34.465Z,10.24
2023-03-30T23:07:34.466Z,10.27
2023-03-30T23:10:14.565Z,10.3
2023-03-30T23:12:14.511Z,10.42
2023-03-30T23:14:14.543Z,10.43
2023-03-30T23:16:14.516Z,10.36
2023-03-30T23:18:14.523Z,10.35
2023-03-30T23:20:14.514Z,10.37
2023-03-30T23:22:14.581Z,10.39
2023-03-30T23:25:06.849Z,10.24
2023-03-30T23:27:06.880Z,10.18
2023-03-30T23:29:06.839Z,10.24
2023-03-30T23:31:06.934Z,10.22
2023-03-30T23:33:06.853Z,10.23
2023-03-30T23:35:06.840Z,10.21
2023-03-30T23:37:06.885Z,10.1
2023-03-30T23:39:06.876Z,10.15
2023-03-30T23:40:53.419Z,10.07
2023-03-30T23:42:53.355Z,10.01
2023-03-30T23:44:53.364Z,10.11
2023-03-30T23:46:53.409Z,10
2023-03-30T23:48:53.368Z,9.73
2023-03-30T23:50:53.368Z,10.03
2023-03-30T23:52:53.402Z,10.09
2023-03-30T23:56:08.403Z,10.16
2023-03-30T23:58:08.385Z,10.16
